Time;durP1;ratioP1;P1;durP2;ratioP2;P2;SDS_P1;SDS_P2;PMS_P1;PMS_P2;Temp;Humidity;BMP_temperature;BMP_pressure;BME280_temperature;BME280_humidity;BME280_pressure;Samples;Min_cycle;Max_cycle;Signal;HPM_P1;HPM_P2
2023/01/29 00:01:22;;;;;;;0.30;0.23;;;;;;;2.10;85.36;101603.84;5060744;28;20473;-59
2023/01/29 00:03:52;;;;;;;0.30;0.30;;;;;;;2.05;84.22;101608.94;5065371;28;20443;-58
2023/01/29 00:06:19;;;;;;;0.30;0.20;;;;;;;1.98;85.38;101614.88;5054240;28;20458;-58
2023/01/29 00:08:45;;;;;;;0.60;0.60;;;;;;;1.98;85.82;101620.13;5051629;28;20454;-58
2023/01/29 00:11:12;;;;;;;1.50;1.40;;;;;;;2.25;85.12;101609.50;5057907;28;20454;-59
2023/01/29 00:13:39;;;;;;;1.23;1.13;;;;;;;2.38;84.54;101610.72;5064140;28;20498;-58
2023/01/29 00:16:06;;;;;;;0.50;0.50;;;;;;;1.97;84.62;101613.09;5067610;28;20964;-59
2023/01/29 00:18:36;;;;;;;0.97;0.97;;;;;;;2.07;84.24;101612.53;5054669;28;20447;-59
2023/01/29 00:21:03;;;;;;;0.30;0.20;;;;;;;2.25;85.17;101613.84;5067208;28;20465;-58
2023/01/29 00:23:29;;;;;;;0.47;0.47;;;;;;;2.13;86.35;101608.28;5065430;28;20444;-58
2023/01/29 00:25:58;;;;;;;11.47;0.67;;;;;;;2.04;84.76;101615.03;5060647;28;20477;-58
2023/01/29 00:28:25;;;;;;;0.43;0.37;;;;;;;2.12;85.40;101622.25;5062286;28;20974;-59
2023/01/29 00:30:51;;;;;;;0.47;0.40;;;;;;;1.80;83.66;101632.72;5067587;28;20525;-58
2023/01/29 00:33:18;;;;;;;0.40;0.23;;;;;;;2.14;82.63;101634.53;5055526;28;20478;-58
2023/01/29 00:35:44;;;;;;;0.50;0.47;;;;;;;2.11;82.54;101630.97;5067209;28;20451;-59
2023/01/29 00:38:10;;;;;;;0.70;0.30;;;;;;;1.84;82.91;101625.84;5065163;28;20942;-58
2023/01/29 00:46:10;;;;;;;1.13;0.83;;;;;;;2.05;81.95;101640.41;5055958;28;20447;-59
2023/01/29 00:48:36;;;;;;;1.70;1.60;;;;;;;2.07;81.80;101643.09;5058280;28;20521;-59
2023/01/29 00:51:03;;;;;;;0.30;0.30;;;;;;;1.91;82.18;101636.50;5044671;28;20482;-59
2023/01/29 00:53:29;;;;;;;0.30;0.20;;;;;;;2.07;81.40;101623.00;5068676;28;20497;-59
2023/01/29 00:55:56;;;;;;;0.53;0.50;;;;;;;1.89;81.21;101630.34;5062075;28;20532;-59
2023/01/29 00:58:27;;;;;;;2.40;2.30;;;;;;;1.60;83.77;101634.75;5066894;28;20459;-59
2023/01/29 01:00:54;;;;;;;0.30;0.30;;;;;;;1.83;83.49;101637.16;5057853;28;20965;-59
2023/01/29 01:03:21;;;;;;;0.60;0.60;;;;;;;2.05;83.27;101636.91;5049069;28;20479;-58
2023/01/29 01:05:47;;;;;;;26.73;1.37;;;;;;;2.12;83.11;101635.34;5065995;28;20446;-59
2023/01/29 01:11:03;;;;;;;1.30;1.07;;;;;;;2.28;82.41;101621.78;5061680;28;20442;-59
2023/01/29 01:13:31;;;;;;;1.47;1.47;;;;;;;2.34;80.89;101616.72;5050312;22;21034;-57
2023/01/29 01:15:58;;;;;;;0.30;0.30;;;;;;;2.12;80.95;101620.50;5029955;28;20455;-58
2023/01/29 01:18:28;;;;;;;0.73;0.50;;;;;;;2.07;81.38;101622.13;5033573;28;20456;-57
2023/01/29 01:20:58;;;;;;;1.97;0.70;;;;;;;1.96;82.17;101624.44;5029586;28;20452;-58
2023/01/29 01:23:25;;;;;;;0.30;0.30;;;;;;;2.12;81.43;101614.38;5024102;28;20649;-57
2023/01/29 01:25:52;;;;;;;0.80;0.40;;;;;;;2.08;82.62;101618.66;5033247;28;20462;-57
2023/01/29 01:28:18;;;;;;;0.50;0.50;;;;;;;2.05;82.10;101608.06;5033665;28;20464;-57
2023/01/29 01:30:45;;;;;;;0.40;0.37;;;;;;;2.13;81.41;101611.78;5033471;28;20456;-57
2023/01/29 01:33:12;;;;;;;0.60;0.50;;;;;;;1.97;82.04;101605.25;5033275;28;20533;-57
2023/01/29 01:35:39;;;;;;;0.43;0.43;;;;;;;1.88;81.64;101601.47;5033222;28;20470;-57
2023/01/29 01:38:06;;;;;;;0.70;0.43;;;;;;;1.96;81.21;101595.59;5032829;28;20458;-56
2023/01/29 01:40:33;;;;;;;1.03;0.60;;;;;;;1.98;82.71;101596.53;5021345;28;20459;-56
2023/01/29 01:43:00;;;;;;;0.40;0.40;;;;;;;1.99;82.08;101595.69;5013870;28;20476;-57
2023/01/29 01:45:35;;;;;;;2.23;0.40;;;;;;;1.95;83.07;101590.31;5031953;28;20443;-57
2023/01/29 01:48:23;;;;;;;1.10;0.37;;;;;;;1.94;83.26;101588.56;5033043;28;20446;-57
2023/01/29 01:51:02;;;;;;;11.60;0.60;;;;;;;2.04;83.77;101582.69;5021982;28;20543;-56
2023/01/29 01:53:37;;;;;;;1.43;0.70;;;;;;;1.96;82.66;101581.59;5022654;28;20491;-56
2023/01/29 01:56:09;;;;;;;0.47;0.47;;;;;;;1.94;81.83;101571.09;5032866;28;20443;-57
2023/01/29 01:58:50;;;;;;;2.53;1.43;;;;;;;1.92;85.31;101574.47;5019491;28;20451;-57
2023/01/29 02:01:17;;;;;;;0.60;0.60;;;;;;;1.92;85.34;101571.88;5019610;28;20841;-57
2023/01/29 02:09:33;;;;;;;0.47;0.47;;;;;;;1.72;87.16;101556.50;5025879;28;20472;-57
2023/01/29 02:12:09;;;;;;;0.47;0.47;;;;;;;1.74;87.28;101560.03;5032695;28;20474;-57
2023/01/29 02:14:39;;;;;;;0.40;0.40;;;;;;;1.57;88.13;101560.41;5019335;28;20518;-57
2023/01/29 02:17:08;;;;;;;0.40;0.40;;;;;;;1.58;88.45;101557.84;5032581;28;20937;-57
2023/01/29 02:19:45;;;;;;;0.53;0.53;;;;;;;1.52;89.26;101551.56;5032450;28;20483;-57
2023/01/29 02:22:15;;;;;;;0.40;0.40;;;;;;;1.53;88.32;101554.22;5032198;28;20462;-57
2023/01/29 02:25:08;;;;;;;0.80;0.80;;;;;;;1.69;90.49;101552.91;5032706;28;20450;-56
2023/01/29 02:27:47;;;;;;;0.60;0.60;;;;;;;1.91;87.18;101552.63;5032291;28;20444;-57
2023/01/29 02:30:13;;;;;;;0.30;0.20;;;;;;;1.80;85.77;101553.22;5032321;28;20534;-57
2023/01/29 02:32:53;;;;;;;0.60;0.60;;;;;;;1.66;87.89;101551.09;5032413;28;20498;-57
2023/01/29 02:35:29;;;;;;;0.30;0.20;;;;;;;1.66;88.30;101547.59;5018763;28;20976;-57
2023/01/29 02:38:09;;;;;;;0.40;0.40;;;;;;;1.53;88.02;101554.22;5032521;28;20471;-56
2023/01/29 02:40:44;;;;;;;0.70;0.20;;;;;;;1.64;84.86;101557.09;5019238;28;20664;-57
2023/01/29 02:43:34;;;;;;;0.93;0.93;;;;;;;1.64;82.64;101567.59;5032459;28;20459;-56
2023/01/29 02:46:22;;;;;;;0.70;0.70;;;;;;;1.73;81.56;101574.00;5023493;28;20445;-57
2023/01/29 02:49:23;;;;;;;0.63;0.63;;;;;;;1.92;82.48;101582.34;5031331;28;20498;-57
2023/01/29 02:52:10;;;;;;;2.00;0.43;;;;;;;1.79;81.61;101578.53;5032292;28;20459;-57
2023/01/29 02:55:03;;;;;;;1.53;1.40;;;;;;;1.80;82.58;101590.78;5028793;28;20537;-57
2023/01/29 02:57:38;;;;;;;0.40;0.30;;;;;;;1.86;83.51;101598.81;5032164;28;20498;-57
2023/01/29 03:00:35;;;;;;;0.37;0.37;;;;;;;1.66;84.34;101595.66;5032251;28;20451;-58
2023/01/29 03:03:14;;;;;;;0.43;0.30;;;;;;;1.73;83.54;101596.69;5033068;28;21058;-55
2023/01/29 03:05:53;;;;;;;0.30;0.30;;;;;;;1.56;84.14;101601.47;5036080;28;20490;-57
2023/01/29 03:08:36;;;;;;;0.57;0.57;;;;;;;1.80;84.47;101600.38;5036192;28;20562;-57
2023/01/29 03:11:06;;;;;;;1.63;0.80;;;;;;;1.87;85.53;101592.72;5031602;28;20514;-57
2023/01/29 03:13:35;;;;;;;0.50;0.40;;;;;;;1.64;85.27;101589.44;5035191;28;20574;-57
2023/01/29 03:16:25;;;;;;;1.00;0.90;;;;;;;1.53;85.15;101575.19;5035809;28;20451;-56
2023/01/29 03:19:06;;;;;;;0.73;0.73;;;;;;;1.58;86.27;101573.56;5035506;28;20451;-57
2023/01/29 03:21:58;;;;;;;1.13;1.13;;;;;;;1.54;86.71;101576.06;5024250;28;20447;-56
2023/01/29 03:33:31;;;;;;;1.10;1.10;;;;;;;1.72;86.83;101590.56;5035523;28;20617;-57
2023/01/29 03:36:06;;;;;;;0.53;0.53;;;;;;;1.67;85.49;101589.56;5035547;28;20538;-57
2023/01/29 03:38:32;;;;;;;1.07;1.00;;;;;;;1.80;84.53;101593.41;5034822;28;20452;-57
2023/01/29 03:41:07;;;;;;;2.30;1.03;;;;;;;1.71;84.09;101598.38;5023755;28;20498;-57
2023/01/29 03:43:36;;;;;;;3.60;0.93;;;;;;;1.69;83.12;101598.34;5032575;28;20961;-57
2023/01/29 03:46:17;;;;;;;0.27;0.17;;;;;;;1.82;82.38;101599.59;5033365;28;20455;-57
2023/01/29 03:48:53;;;;;;;1.53;1.43;;;;;;;1.61;80.68;101597.22;5035177;28;20447;-57
2023/01/29 03:51:27;;;;;;;0.47;0.47;;;;;;;1.57;81.04;101589.25;5028606;28;20447;-56
2023/01/29 03:54:03;;;;;;;0.20;0.20;;;;;;;1.44;81.80;101586.25;5026318;28;20486;-57
2023/01/29 03:56:38;;;;;;;0.20;0.20;;;;;;;1.34;82.35;101591.19;5035211;28;20455;-57
2023/01/29 03:59:31;;;;;;;0.30;0.27;;;;;;;1.51;82.83;101583.81;5034525;28;20459;-57
2023/01/29 04:02:03;;;;;;;0.50;0.50;;;;;;;1.58;83.00;101575.28;5018897;28;20483;-57
2023/01/29 04:04:33;;;;;;;0.40;0.40;;;;;;;1.47;84.59;101588.97;5021930;28;20448;-56
2023/01/29 04:07:12;;;;;;;0.63;0.63;;;;;;;1.36;86.51;101593.00;5034989;28;20448;-57
2023/01/29 04:10:02;;;;;;;0.60;0.60;;;;;;;1.28;85.80;101589.28;5033838;28;20455;-57
2023/01/29 04:12:34;;;;;;;2.43;0.70;;;;;;;1.40;85.11;101597.50;5033661;28;20483;-57
2023/01/29 04:15:06;;;;;;;0.30;0.20;;;;;;;1.19;85.77;101589.88;5023419;28;20499;-57
2023/01/29 04:17:38;;;;;;;1.50;1.03;;;;;;;1.21;85.59;101582.06;5034648;28;20444;-57
2023/01/29 04:20:05;;;;;;;0.90;0.90;;;;;;;1.05;85.80;101570.25;5034768;28;20456;-58
2023/01/29 04:22:35;;;;;;;0.60;0.50;;;;;;;1.16;86.65;101567.97;5034507;28;20999;-58
2023/01/29 04:25:07;;;;;;;1.33;1.23;;;;;;;1.10;87.60;101571.28;5034456;28;20455;-57
2023/01/29 04:28:01;;;;;;;3.23;3.10;;;;;;;1.09;89.30;101572.09;5034726;28;20448;-57
2023/01/29 04:30:28;;;;;;;1.20;1.20;;;;;;;1.00;88.73;101570.97;5021134;28;20463;-57
2023/01/29 04:33:05;;;;;;;0.63;0.63;;;;;;;1.00;89.50;101569.22;5030285;28;20884;-58
2023/01/29 04:35:35;;;;;;;0.43;0.43;;;;;;;1.19;89.60;101562.81;5034535;28;20510;-57
2023/01/29 04:38:39;;;;;;;0.33;0.30;;;;;;;0.98;88.24;101568.28;5034588;28;20451;-57
2023/01/29 04:41:45;;;;;;;0.70;0.63;;;;;;;1.21;87.82;101573.31;5024588;28;20454;-58
2023/01/29 04:44:48;;;;;;;0.87;0.53;;;;;;;1.04;87.69;101567.56;4995534;28;20832;-58
2023/01/29 04:47:31;;;;;;;0.60;0.60;;;;;;;0.99;88.92;101571.81;5030537;28;20444;-57
2023/01/29 04:50:25;;;;;;;0.60;0.60;;;;;;;0.92;89.00;101577.66;5029712;28;20448;-57
2023/01/29 04:53:03;;;;;;;0.40;0.40;;;;;;;0.92;88.12;101572.44;5031326;28;20480;-57
2023/01/29 04:55:42;;;;;;;1.70;0.40;;;;;;;0.96;87.99;101575.22;5014278;28;21007;-56
2023/01/29 04:58:16;;;;;;;1.03;0.60;;;;;;;1.10;86.35;101573.03;5029869;28;20807;-58
2023/01/29 05:00:44;;;;;;;0.53;0.53;;;;;;;1.07;86.56;101567.66;5023474;28;20457;-57
2023/01/29 05:03:13;;;;;;;0.77;0.77;;;;;;;1.09;86.35;101574.72;5027108;28;20482;-57
2023/01/29 05:05:42;;;;;;;2.60;0.73;;;;;;;1.08;87.66;101566.81;5025356;28;20940;-57
2023/01/29 05:08:12;;;;;;;0.30;0.30;;;;;;;1.27;86.81;101574.41;5020689;28;20814;-57
2023/01/29 05:10:39;;;;;;;0.77;0.77;;;;;;;1.17;86.85;101572.34;5031026;28;20546;-57
2023/01/29 05:13:09;;;;;;;0.70;0.70;;;;;;;1.26;85.98;101575.25;5027341;28;20481;-57
2023/01/29 05:15:40;;;;;;;1.50;1.40;;;;;;;1.41;86.26;101574.81;5027146;28;20494;-58
2023/01/29 05:18:07;;;;;;;5.10;0.60;;;;;;;1.00;88.42;101581.44;5033805;28;20444;-57
2023/01/29 05:20:40;;;;;;;0.50;0.50;;;;;;;1.17;88.80;101585.44;5033438;28;20448;-57
2023/01/29 05:23:16;;;;;;;0.97;0.97;;;;;;;1.32;88.29;101578.03;5033489;28;20463;-57
2023/01/29 05:25:43;;;;;;;0.40;0.40;;;;;;;1.16;88.79;101571.47;5032476;28;20554;-57
2023/01/29 05:28:16;;;;;;;0.70;0.70;;;;;;;1.06;89.43;101571.13;5033619;28;20489;-57
2023/01/29 05:30:45;;;;;;;3.50;1.70;;;;;;;1.01;89.19;101572.72;5033356;28;20498;-56
2023/01/29 05:33:38;;;;;;;0.57;0.57;;;;;;;1.15;88.62;101567.06;5021748;28;20527;-56
2023/01/29 05:36:05;;;;;;;0.20;0.20;;;;;;;1.06;89.75;101563.28;5020627;28;20460;-57
2023/01/29 05:38:32;;;;;;;0.80;0.80;;;;;;;1.00;89.92;101547.41;5032694;28;20459;-58
2023/01/29 05:40:58;;;;;;;2.80;0.70;;;;;;;1.04;88.68;101549.25;5022445;28;20482;-57
2023/01/29 05:43:25;;;;;;;0.40;0.30;;;;;;;1.06;90.14;101556.31;5030784;28;20472;-58
2023/01/29 05:46:00;;;;;;;0.57;0.43;;;;;;;1.01;88.76;101554.41;5022434;28;20460;-58
2023/01/29 05:48:28;;;;;;;2.57;2.03;;;;;;;1.05;88.59;101572.84;5032042;28;20796;-57
2023/01/29 05:51:02;;;;;;;0.80;0.80;;;;;;;1.07;87.73;101567.66;5033027;28;20546;-58
2023/01/29 05:53:29;;;;;;;2.10;1.17;;;;;;;0.93;88.71;101564.63;5029365;28;20481;-58
2023/01/29 05:56:00;;;;;;;0.50;0.27;;;;;;;0.83;88.91;101566.09;5032584;28;20494;-57
2023/01/29 05:58:28;;;;;;;0.63;0.63;;;;;;;0.87;88.97;101562.72;5032799;28;20559;-57
2023/01/29 06:00:55;;;;;;;1.83;1.73;;;;;;;0.81;89.83;101572.09;5032796;28;20794;-57
2023/01/29 06:03:21;;;;;;;4.43;1.27;;;;;;;0.99;89.23;101579.66;5032699;28;20490;-57
2023/01/29 06:05:48;;;;;;;0.83;0.40;;;;;;;0.92;90.08;101588.13;5032464;28;20838;-57
2023/01/29 06:08:14;;;;;;;0.80;0.80;;;;;;;0.82;90.19;101582.63;5032742;28;20448;-58
2023/01/29 06:10:44;;;;;;;0.97;0.50;;;;;;;0.83;90.67;101568.72;5026639;28;20806;-57
2023/01/29 06:13:10;;;;;;;1.43;1.23;;;;;;;0.78;90.33;101579.84;5026389;28;20483;-56
2023/01/29 06:15:39;;;;;;;0.87;0.87;;;;;;;0.75;90.88;101579.75;5022600;28;20492;-56
2023/01/29 06:18:06;;;;;;;0.80;0.80;;;;;;;0.67;90.20;101582.13;5028221;28;20463;-56
2023/01/29 06:20:32;;;;;;;0.80;0.80;;;;;;;0.75;89.70;101578.03;5023300;28;20483;-56
2023/01/29 06:22:59;;;;;;;4.43;2.43;;;;;;;0.55;89.72;101568.66;5010304;28;20472;-56
2023/01/29 06:25:25;;;;;;;1.60;0.50;;;;;;;0.72;90.10;101583.16;5014955;28;20463;-56
2023/01/29 06:27:52;;;;;;;0.97;0.97;;;;;;;0.73;89.88;101577.09;5012696;28;20823;-57
2023/01/29 06:30:18;;;;;;;0.53;0.53;;;;;;;0.69;88.95;101564.78;5019652;28;20459;-56
2023/01/29 06:32:45;;;;;;;1.47;0.57;;;;;;;0.63;89.37;101556.72;5023369;28;20501;-57
2023/01/29 06:35:11;;;;;;;0.33;0.30;;;;;;;0.78;89.83;101556.28;5025920;28;20493;-57
2023/01/29 06:37:38;;;;;;;0.40;0.40;;;;;;;0.72;89.96;101550.88;5012620;28;20460;-57
2023/01/29 06:40:05;;;;;;;2.73;0.80;;;;;;;0.71;90.22;101550.00;5025508;28;20527;-57
2023/01/29 06:42:34;;;;;;;0.87;0.83;;;;;;;0.61;90.09;101553.16;5030580;28;20471;-57
2023/01/29 06:45:00;;;;;;;4.33;1.40;;;;;;;0.67;90.43;101555.94;5016870;28;20452;-57
2023/01/29 06:47:27;;;;;;;2.63;0.47;;;;;;;0.65;91.16;101560.25;5027652;28;20870;-57
2023/01/29 06:49:54;;;;;;;0.80;0.40;;;;;;;0.62;92.17;101564.50;5031992;28;20948;-57
2023/01/29 06:52:20;;;;;;;1.80;0.97;;;;;;;0.64;91.40;101558.47;5019365;28;20464;-56
2023/01/29 06:54:46;;;;;;;0.70;0.70;;;;;;;0.61;92.03;101566.22;5030038;28;20827;-56
2023/01/29 06:57:13;;;;;;;0.60;0.60;;;;;;;0.56;92.39;101563.47;5027572;28;20476;-57
2023/01/29 06:59:39;;;;;;;3.80;1.63;;;;;;;0.54;92.44;101566.84;5027244;28;20865;-57
2023/01/29 07:02:06;;;;;;;1.83;1.73;;;;;;;0.54;93.04;101567.75;5032150;28;20471;-57
2023/01/29 07:04:34;;;;;;;0.67;0.67;;;;;;;0.56;93.21;101563.47;5023215;28;20506;-56
2023/01/29 07:07:00;;;;;;;4.60;1.27;;;;;;;0.59;93.21;101570.53;5017863;28;20976;-57
2023/01/29 07:09:27;;;;;;;0.40;0.40;;;;;;;0.61;93.20;101568.84;5022925;28;20490;-58
2023/01/29 07:11:53;;;;;;;0.70;0.70;;;;;;;0.58;92.04;101559.19;5010781;28;20581;-56
2023/01/29 07:14:20;;;;;;;0.40;0.40;;;;;;;0.54;93.01;101569.47;5026158;28;20885;-54
2023/01/29 07:16:46;;;;;;;1.33;1.20;;;;;;;0.58;92.33;101568.75;5012862;28;20453;-55
2023/01/29 07:19:13;;;;;;;4.13;0.90;;;;;;;0.42;92.63;101571.72;5020936;28;20456;-54
2023/01/29 07:21:39;;;;;;;0.70;0.70;;;;;;;0.47;92.79;101575.38;5015712;28;21009;-55
2023/01/29 07:24:06;;;;;;;1.27;1.17;;;;;;;0.56;92.79;101575.66;5024436;28;20478;-55
2023/01/29 07:26:33;;;;;;;9.03;1.40;;;;;;;0.65;92.84;101582.91;5021144;28;20484;-54
2023/01/29 07:28:59;;;;;;;1.57;0.60;;;;;;;0.46;93.65;101581.44;5017846;28;20463;-54
2023/01/29 07:31:26;;;;;;;1.33;1.23;;;;;;;0.50;93.33;101596.38;5017971;28;20463;-55
2023/01/29 07:33:52;;;;;;;0.67;0.67;;;;;;;0.48;94.22;101600.69;5018375;28;20546;-55
2023/01/29 07:36:19;;;;;;;2.63;1.30;;;;;;;0.53;94.37;101601.72;5031675;28;20506;-54
2023/01/29 07:38:49;;;;;;;1.33;0.97;;;;;;;0.56;93.61;101607.94;5013853;28;20458;-55
2023/01/29 07:41:16;;;;;;;1.20;1.10;;;;;;;0.66;93.20;101603.88;5020251;28;20494;-55
2023/01/29 07:43:42;;;;;;;0.93;0.83;;;;;;;0.69;90.04;101605.75;5010322;28;20476;-54
2023/01/29 07:46:09;;;;;;;0.37;0.30;;;;;;;0.78;89.80;101606.03;5011975;28;20527;-55
2023/01/29 07:48:35;;;;;;;1.90;1.80;;;;;;;0.76;89.79;101598.13;5028765;28;20459;-55
2023/01/29 07:51:02;;;;;;;1.10;1.10;;;;;;;0.74;90.55;101607.66;5025230;28;20802;-55
2023/01/29 07:53:29;;;;;;;1.13;1.10;;;;;;;0.81;90.49;101598.25;5025329;28;20479;-55
2023/01/29 07:55:56;;;;;;;0.70;0.70;;;;;;;0.86;89.94;101597.59;5016960;28;20985;-56
2023/01/29 07:58:23;;;;;;;1.13;0.67;;;;;;;0.68;89.14;101589.13;5022112;28;20473;-57
2023/01/29 08:00:49;;;;;;;3.13;0.50;;;;;;;0.67;90.35;101589.06;5035132;28;20455;-55
2023/01/29 08:03:21;;;;;;;1.53;0.70;;;;;;;0.77;90.73;101589.44;5027859;28;20471;-55
2023/01/29 08:05:47;;;;;;;3.87;2.70;;;;;;;0.86;90.34;101591.47;5034048;28;20444;-55
2023/01/29 08:08:14;;;;;;;1.23;1.17;;;;;;;0.83;90.54;101584.41;5034898;28;20453;-56
2023/01/29 08:10:41;;;;;;;1.70;1.37;;;;;;;0.88;90.23;101585.44;5028874;28;20895;-55
2023/01/29 08:13:08;;;;;;;0.83;0.70;;;;;;;0.81;89.71;101578.22;5029310;28;20487;-55
2023/01/29 08:15:35;;;;;;;0.20;0.20;;;;;;;0.99;90.18;101585.78;5027545;28;20483;-55
2023/01/29 08:18:21;;;;;;;0.40;0.40;;;;;;;0.97;88.92;101589.19;5029803;28;20444;-56
2023/01/29 08:20:47;;;;;;;2.10;0.63;;;;;;;1.03;88.95;101578.91;5019335;28;20468;-55
2023/01/29 08:23:15;;;;;;;0.47;0.47;;;;;;;1.04;88.28;101572.81;5023827;28;20563;-56
2023/01/29 08:25:42;;;;;;;1.30;1.23;;;;;;;0.96;88.77;101579.53;5023107;28;20484;-56
2023/01/29 08:28:10;;;;;;;0.60;0.60;;;;;;;1.02;88.22;101591.09;5022810;28;20491;-55
2023/01/29 08:30:37;;;;;;;0.70;0.70;;;;;;;0.83;89.00;101597.50;5027101;28;20452;-55
2023/01/29 08:33:03;;;;;;;2.97;1.07;;;;;;;0.73;89.11;101597.13;5017242;28;20483;-55
2023/01/29 08:35:30;;;;;;;6.63;0.83;;;;;;;1.15;88.05;101592.38;5024596;28;20852;-55
2023/01/29 08:37:59;;;;;;;0.50;0.30;;;;;;;1.05;88.22;101592.91;5025253;28;20548;-56
2023/01/29 08:40:27;;;;;;;1.60;1.50;;;;;;;1.03;88.81;101579.78;5017412;28;20470;-57
2023/01/29 08:42:58;;;;;;;0.67;0.67;;;;;;;1.09;88.49;101572.09;5023273;28;20563;-55
2023/01/29 08:45:28;;;;;;;1.73;1.67;;;;;;;1.08;89.19;101569.44;5027518;28;20925;-56
2023/01/29 08:47:55;;;;;;;1.03;1.03;;;;;;;1.09;89.17;101571.22;5027840;28;20452;-55
2023/01/29 08:50:22;;;;;;;1.40;1.37;;;;;;;1.29;89.23;101577.06;5020754;28;20945;-55
2023/01/29 08:52:48;;;;;;;1.53;1.43;;;;;;;1.04;88.67;101573.69;5031929;28;20467;-55
2023/01/29 08:55:15;;;;;;;1.80;1.70;;;;;;;1.04;88.39;101571.09;5024681;28;20492;-55
2023/01/29 08:57:42;;;;;;;0.87;0.87;;;;;;;1.13;88.00;101573.09;5026447;28;20448;-57
2023/01/29 09:00:09;;;;;;;0.50;0.50;;;;;;;1.17;88.61;101594.19;5032979;28;20482;-55
2023/01/29 09:02:36;;;;;;;0.43;0.40;;;;;;;1.18;87.22;101597.69;5033907;28;20475;-55
2023/01/29 09:05:03;;;;;;;1.13;1.10;;;;;;;1.21;86.67;101609.97;5025840;28;20440;-56
2023/01/29 09:07:30;;;;;;;1.07;1.07;;;;;;;1.22;87.71;101610.03;5017447;28;20449;-55
2023/01/29 09:09:56;;;;;;;0.30;0.30;;;;;;;1.37;86.45;101610.50;5023808;28;20448;-57
2023/01/29 09:12:23;;;;;;;0.77;0.70;;;;;;;1.36;86.13;101619.19;5028688;28;20511;-55
2023/01/29 09:14:50;;;;;;;1.73;1.63;;;;;;;1.38;87.94;101612.28;5020717;28;20495;-56
2023/01/29 09:17:16;;;;;;;0.80;0.60;;;;;;;1.40;87.36;101602.75;5032252;28;20897;-55
2023/01/29 09:19:43;;;;;;;0.60;0.50;;;;;;;1.36;87.27;101621.81;5032724;28;20525;-56
2023/01/29 09:22:09;;;;;;;1.07;0.83;;;;;;;1.46;86.71;101626.47;5020647;28;20469;-55
2023/01/29 09:24:37;;;;;;;2.20;2.10;;;;;;;1.40;86.85;101628.94;5014023;28;20448;-55
2023/01/29 09:27:04;;;;;;;0.57;0.57;;;;;;;1.35;86.91;101632.25;4996337;28;20449;-56
2023/01/29 09:29:31;;;;;;;0.87;0.87;;;;;;;1.17;87.99;101632.56;5013772;28;20543;-55
2023/01/29 09:32:02;;;;;;;0.53;0.53;;;;;;;1.28;88.03;101623.31;5027161;28;20478;-55
2023/01/29 09:34:29;;;;;;;0.50;0.30;;;;;;;1.29;87.92;101608.50;5021012;28;20470;-55
2023/01/29 09:36:55;;;;;;;1.23;0.70;;;;;;;1.37;86.90;101621.00;5029027;28;20484;-57
2023/01/29 09:39:22;;;;;;;0.50;0.50;;;;;;;1.17;87.99;101628.22;5033565;28;20455;-56
2023/01/29 09:41:55;;;;;;;0.90;0.90;;;;;;;1.39;88.07;101635.03;5032692;28;20485;-55
2023/01/29 09:44:45;;;;;;;0.77;0.77;;;;;;;1.23;87.72;101637.09;5019562;28;20539;-55
2023/01/29 09:47:14;;;;;;;1.20;1.10;;;;;;;1.26;87.97;101642.47;5033093;28;20446;-56
2023/01/29 09:49:47;;;;;;;0.57;0.57;;;;;;;1.49;88.54;101631.81;5033258;28;20452;-56
2023/01/29 09:52:13;;;;;;;1.13;1.13;;;;;;;1.60;87.87;101621.66;5033197;28;20474;-55
2023/01/29 09:54:48;;;;;;;7.37;1.03;;;;;;;1.46;86.86;101625.59;5028773;28;20455;-56
2023/01/29 09:57:23;;;;;;;0.87;0.87;;;;;;;1.33;86.94;101628.69;5013348;28;20454;-55
2023/01/29 09:59:50;;;;;;;1.23;1.00;;;;;;;1.56;86.73;101630.28;5022519;28;20452;-56
2023/01/29 10:02:51;;;;;;;0.70;0.70;;;;;;;1.67;86.69;101646.31;5031722;28;20471;-56
2023/01/29 10:05:20;;;;;;;0.60;0.60;;;;;;;1.62;86.69;101640.03;5020981;28;20440;-56
2023/01/29 10:08:05;;;;;;;0.73;0.73;;;;;;;1.68;86.86;101635.88;5031443;28;20443;-57
2023/01/29 10:10:38;;;;;;;1.20;1.10;;;;;;;1.52;86.81;101632.78;5029779;28;20449;-57
2023/01/29 10:13:24;;;;;;;1.37;1.37;;;;;;;1.42;86.63;101629.88;5029295;28;20863;-55
2023/01/29 10:16:12;;;;;;;2.33;1.30;;;;;;;1.45;86.21;101619.47;5007947;28;21060;-59
2023/01/29 10:18:50;;;;;;;0.30;0.30;;;;;;;1.52;87.34;101624.91;5023798;28;20454;-59
2023/01/29 10:21:54;;;;;;;0.67;0.67;;;;;;;1.53;86.97;101621.44;5019299;28;20453;-60
2023/01/29 10:24:35;;;;;;;7.80;1.37;;;;;;;1.36;85.92;101619.19;5032410;28;20444;-60
2023/01/29 10:27:10;;;;;;;1.60;1.50;;;;;;;1.61;85.20;101623.44;5032637;28;20947;-60
2023/01/29 10:29:41;;;;;;;0.73;0.73;;;;;;;1.45;85.95;101624.72;5019411;28;20554;-60
2023/01/29 10:32:14;;;;;;;0.93;0.93;;;;;;;1.56;85.80;101627.66;5001155;28;21041;-60
2023/01/29 10:34:47;;;;;;;0.40;0.33;;;;;;;1.87;86.00;101611.06;5023463;28;20452;-60
2023/01/29 10:37:36;;;;;;;0.70;0.70;;;;;;;1.61;86.14;101609.44;5029294;28;20501;-60
2023/01/29 10:40:22;;;;;;;0.30;0.20;;;;;;;1.53;86.65;101600.50;5005920;28;20455;-60
2023/01/29 10:43:07;;;;;;;2.30;0.97;;;;;;;1.70;85.53;101573.91;5030990;28;20474;-60
2023/01/29 10:45:56;;;;;;;0.77;0.77;;;;;;;1.74;85.17;101567.91;5019155;28;20444;-59
2023/01/29 10:48:37;;;;;;;0.40;0.40;;;;;;;1.66;84.73;101568.56;5032118;28;21014;-60
2023/01/29 10:51:40;;;;;;;0.60;0.60;;;;;;;1.79;85.13;101560.19;5029705;28;20542;-60
2023/01/29 10:54:28;;;;;;;0.60;0.60;;;;;;;2.03;84.08;101549.44;5024967;28;20451;-59
2023/01/29 10:57:02;;;;;;;0.60;0.60;;;;;;;1.85;83.70;101539.38;5032169;28;20520;-60
2023/01/29 10:59:47;;;;;;;2.40;0.37;;;;;;;1.98;82.99;101544.09;5013611;28;20458;-59
2023/01/29 11:02:20;;;;;;;0.90;0.90;;;;;;;2.05;83.20;101519.78;5022412;28;20479;-60
2023/01/29 11:04:46;;;;;;;0.67;0.67;;;;;;;2.29;82.29;101526.50;5031915;28;20459;-59
2023/01/29 11:07:16;;;;;;;1.20;1.13;;;;;;;2.42;83.04;101519.84;5031828;28;20960;-59
2023/01/29 11:09:53;;;;;;;3.40;0.83;;;;;;;2.24;83.11;101515.03;5026559;28;20467;-60
2023/01/29 11:12:29;;;;;;;3.53;1.53;;;;;;;2.15;83.04;101505.19;5032062;28;20483;-59
2023/01/29 11:14:58;;;;;;;0.50;0.50;;;;;;;2.14;83.90;101497.28;5019594;28;20502;-60
2023/01/29 11:17:25;;;;;;;6.63;2.03;;;;;;;2.35;83.70;101506.59;5018190;28;20488;-60
2023/01/29 11:19:56;;;;;;;0.33;0.30;;;;;;;2.41;82.82;101500.59;5031693;28;20448;-59
2023/01/29 11:22:25;;;;;;;3.03;1.20;;;;;;;2.77;80.81;101497.94;5020085;28;20903;-60
2023/01/29 11:25:18;;;;;;;1.83;1.43;;;;;;;2.74;80.36;101492.63;5034763;28;20451;-59
2023/01/29 11:27:47;;;;;;;2.30;2.20;;;;;;;2.35;81.75;101495.19;5035123;28;20538;-59
2023/01/29 11:30:25;;;;;;;3.00;0.90;;;;;;;2.49;82.12;101492.91;5035601;28;20456;-59
2023/01/29 11:33:08;;;;;;;0.40;0.40;;;;;;;2.34;81.41;101488.19;5023809;28;20470;-58
2023/01/29 11:35:36;;;;;;;1.00;1.00;;;;;;;2.47;82.01;101487.63;5017171;28;20491;-59
2023/01/29 11:38:14;;;;;;;1.87;1.80;;;;;;;2.58;82.35;101486.13;5007573;28;21012;-59
2023/01/29 11:40:42;;;;;;;2.10;1.33;;;;;;;2.82;81.81;101474.41;5022261;28;20970;-58
2023/01/29 11:43:12;;;;;;;1.47;1.37;;;;;;;2.60;79.94;101476.56;5035374;28;20525;-59
2023/01/29 11:45:39;;;;;;;2.03;0.77;;;;;;;2.84;81.31;101467.44;5021995;28;20454;-58
2023/01/29 11:48:14;;;;;;;0.70;0.70;;;;;;;2.78;80.15;101475.19;5036009;28;20450;-56
2023/01/29 11:50:40;;;;;;;1.10;0.83;;;;;;;2.95;80.73;101472.06;5033290;28;20687;-57
2023/01/29 11:53:22;;;;;;;1.57;1.43;;;;;;;2.92;81.37;101476.38;5032152;28;20539;-60
2023/01/29 11:55:50;;;;;;;1.60;0.80;;;;;;;2.89;80.67;101474.59;5035137;28;20901;-59
2023/01/29 11:58:26;;;;;;;1.10;1.10;;;;;;;2.79;81.16;101474.34;5035401;28;20497;-59
2023/01/29 12:00:54;;;;;;;3.40;1.07;;;;;;;2.92;80.89;101473.75;5035514;28;20533;-59
2023/01/29 12:03:30;;;;;;;1.53;1.33;;;;;;;2.66;80.99;101467.94;5034856;28;20513;-59
2023/01/29 12:06:01;;;;;;;2.10;0.80;;;;;;;2.92;80.30;101464.13;5034795;28;20451;-58
2023/01/29 12:08:38;;;;;;;0.63;0.50;;;;;;;2.47;80.93;101465.72;5033887;28;20519;-59
2023/01/29 12:11:08;;;;;;;0.30;0.27;;;;;;;2.44;81.34;101449.91;5013832;28;20447;-57
2023/01/29 12:13:35;;;;;;;2.37;2.17;;;;;;;2.35;81.10;101435.75;5024859;28;20480;-59
2023/01/29 12:16:13;;;;;;;0.83;0.83;;;;;;;2.48;81.41;101429.06;5031388;28;20523;-58
2023/01/29 12:18:59;;;;;;;3.50;0.70;;;;;;;2.71;81.18;101424.28;5034527;28;20531;-58
2023/01/29 12:21:34;;;;;;;0.63;0.63;;;;;;;2.57;81.17;101416.09;5017220;28;20460;-59